sensor_id;sensor_type;location;lat;lon;timestamp;temperature;humidity
59098;DHT22;44883;52.760;6.610;2022-08-01T00:00:00;19.00;99.90
59098;DHT22;44883;52.760;6.610;2022-08-01T00:02:28;19.00;99.90
59098;DHT22;44883;52.760;6.610;2022-08-01T00:04:54;19.00;99.90
59098;DHT22;44883;52.760;6.610;2022-08-01T00:07:20;19.00;99.90
59098;DHT22;44883;52.760;6.610;2022-08-01T00:09:45;19.00;99.90
59098;DHT22;44883;52.760;6.610;2022-08-01T00:12:11;19.00;99.90
59098;DHT22;44883;52.760;6.610;2022-08-01T00:14:36;19.00;99.90
59098;DHT22;44883;52.760;6.610;2022-08-01T00:17:03;19.00;99.90
59098;DHT22;44883;52.760;6.610;2022-08-01T00:19:28;19.00;99.90
59098;DHT22;44883;52.760;6.610;2022-08-01T00:21:54;19.00;99.90
59098;DHT22;44883;52.760;6.610;2022-08-01T00:24:19;19.00;99.90
59098;DHT22;44883;52.760;6.610;2022-08-01T00:26:45;19.00;99.90
59098;DHT22;44883;52.760;6.610;2022-08-01T00:29:10;19.00;99.90
59098;DHT22;44883;52.760;6.610;2022-08-01T00:31:36;19.00;99.90
59098;DHT22;44883;52.760;6.610;2022-08-01T00:34:02;19.00;99.90
59098;DHT22;44883;52.760;6.610;2022-08-01T00:36:27;19.00;99.90
59098;DHT22;44883;52.760;6.610;2022-08-01T00:38:53;19.00;99.90
59098;DHT22;44883;52.760;6.610;2022-08-01T00:41:18;19.00;99.90
59098;DHT22;44883;52.760;6.610;2022-08-01T00:43:44;19.00;99.90
59098;DHT22;44883;52.760;6.610;2022-08-01T00:46:10;19.00;99.90
59098;DHT22;44883;52.760;6.610;2022-08-01T00:48:35;19.00;99.90
59098;DHT22;44883;52.760;6.610;2022-08-01T00:51:03;19.00;99.90
59098;DHT22;44883;52.760;6.610;2022-08-01T00:53:29;18.90;99.90
59098;DHT22;44883;52.760;6.610;2022-08-01T00:55:55;19.00;99.90
59098;DHT22;44883;52.760;6.610;2022-08-01T00:58:21;18.90;99.90
59098;DHT22;44883;52.760;6.610;2022-08-01T01:00:47;18.90;99.90
59098;DHT22;44883;52.760;6.610;2022-08-01T01:03:13;18.90;99.90
59098;DHT22;44883;52.760;6.610;2022-08-01T01:06:01;18.90;99.90
59098;DHT22;44883;52.760;6.610;2022-08-01T01:08:37;18.90;99.90
59098;DHT22;44883;52.760;6.610;2022-08-01T01:11:13;18.90;99.90
59098;DHT22;44883;52.760;6.610;2022-08-01T01:13:46;18.90;99.90
59098;DHT22;44883;52.760;6.610;2022-08-01T01:16:19;18.90;99.90
59098;DHT22;44883;52.760;6.610;2022-08-01T01:18:53;18.90;99.90
59098;DHT22;44883;52.760;6.610;2022-08-01T01:23:54;18.80;99.90
59098;DHT22;44883;52.760;6.610;2022-08-01T01:29:17;18.80;99.90
59098;DHT22;44883;52.760;6.610;2022-08-01T01:34:21;18.80;99.90
59098;DHT22;44883;52.760;6.610;2022-08-01T01:36:48;18.80;99.90
59098;DHT22;44883;52.760;6.610;2022-08-01T01:39:15;18.70;99.90
59098;DHT22;44883;52.760;6.610;2022-08-01T01:41:43;18.70;99.90
59098;DHT22;44883;52.760;6.610;2022-08-01T01:44:10;18.70;99.90
59098;DHT22;44883;52.760;6.610;2022-08-01T01:46:37;18.70;99.90
59098;DHT22;44883;52.760;6.610;2022-08-01T01:49:03;18.70;99.90
59098;DHT22;44883;52.760;6.610;2022-08-01T01:51:31;18.70;99.90
59098;DHT22;44883;52.760;6.610;2022-08-01T01:53:58;18.70;99.90
59098;DHT22;44883;52.760;6.610;2022-08-01T01:56:26;18.70;99.90
59098;DHT22;44883;52.760;6.610;2022-08-01T01:58:55;18.70;99.90
59098;DHT22;44883;52.760;6.610;2022-08-01T02:01:24;18.70;99.90
59098;DHT22;44883;52.760;6.610;2022-08-01T02:03:51;18.70;99.90
59098;DHT22;44883;52.760;6.610;2022-08-01T02:06:17;18.70;99.90
59098;DHT22;44883;52.760;6.610;2022-08-01T02:08:45;18.70;99.90
59098;DHT22;44883;52.760;6.610;2022-08-01T02:11:10;18.70;99.90
59098;DHT22;44883;52.760;6.610;2022-08-01T02:13:58;18.70;99.90
59098;DHT22;44883;52.760;6.610;2022-08-01T02:16:29;18.70;99.90
59098;DHT22;44883;52.760;6.610;2022-08-01T02:18:58;18.70;99.90
59098;DHT22;44883;52.760;6.610;2022-08-01T02:21:27;18.70;99.90
59098;DHT22;44883;52.760;6.610;2022-08-01T02:23:55;18.70;99.90
59098;DHT22;44883;52.760;6.610;2022-08-01T02:26:26;18.70;99.90
59098;DHT22;44883;52.760;6.610;2022-08-01T02:29:07;18.60;99.90
59098;DHT22;44883;52.760;6.610;2022-08-01T02:31:38;18.60;99.90
59098;DHT22;44883;52.760;6.610;2022-08-01T02:34:07;18.60;99.90
59098;DHT22;44883;52.760;6.610;2022-08-01T02:36:35;18.60;99.90
59098;DHT22;44883;52.760;6.610;2022-08-01T02:39:07;18.50;99.90
59098;DHT22;44883;52.760;6.610;2022-08-01T02:41:38;18.50;99.90
59098;DHT22;44883;52.760;6.610;2022-08-01T02:44:07;18.50;99.90
59098;DHT22;44883;52.760;6.610;2022-08-01T02:46:51;18.50;99.90
59098;DHT22;44883;52.760;6.610;2022-08-01T02:49:19;18.40;99.90
59098;DHT22;44883;52.760;6.610;2022-08-01T02:51:47;18.40;99.90
59098;DHT22;44883;52.760;6.610;2022-08-01T02:54:15;18.40;99.90
59098;DHT22;44883;52.760;6.610;2022-08-01T02:56:44;18.30;99.90
59098;DHT22;44883;52.760;6.610;2022-08-01T02:59:15;18.30;99.90
59098;DHT22;44883;52.760;6.610;2022-08-01T03:01:42;18.30;99.90
59098;DHT22;44883;52.760;6.610;2022-08-01T03:04:10;18.30;99.90
59098;DHT22;44883;52.760;6.610;2022-08-01T03:06:37;18.30;99.90
59098;DHT22;44883;52.760;6.610;2022-08-01T03:09:04;18.30;99.90
59098;DHT22;44883;52.760;6.610;2022-08-01T03:11:31;18.30;99.90
59098;DHT22;44883;52.760;6.610;2022-08-01T03:13:59;18.30;99.90
59098;DHT22;44883;52.760;6.610;2022-08-01T03:16:26;18.30;99.90
59098;DHT22;44883;52.760;6.610;2022-08-01T03:18:53;18.30;99.90
59098;DHT22;44883;52.760;6.610;2022-08-01T03:21:21;18.30;99.90
59098;DHT22;44883;52.760;6.610;2022-08-01T03:23:50;18.30;99.90
59098;DHT22;44883;52.760;6.610;2022-08-01T03:26:17;18.30;99.90
59098;DHT22;44883;52.760;6.610;2022-08-01T03:28:44;18.30;99.90
59098;DHT22;44883;52.760;6.610;2022-08-01T03:31:13;18.30;99.90
59098;DHT22;44883;52.760;6.610;2022-08-01T03:33:39;18.20;99.90
59098;DHT22;44883;52.760;6.610;2022-08-01T03:36:05;18.20;99.90
59098;DHT22;44883;52.760;6.610;2022-08-01T03:38:36;18.10;99.90
59098;DHT22;44883;52.760;6.610;2022-08-01T03:41:15;18.00;99.90
59098;DHT22;44883;52.760;6.610;2022-08-01T03:43:47;18.00;99.90
59098;DHT22;44883;52.760;6.610;2022-08-01T03:46:20;17.90;99.90
59098;DHT22;44883;52.760;6.610;2022-08-01T03:48:48;18.00;99.90
59098;DHT22;44883;52.760;6.610;2022-08-01T03:51:17;18.00;99.90
59098;DHT22;44883;52.760;6.610;2022-08-01T03:53:45;17.90;99.90
59098;DHT22;44883;52.760;6.610;2022-08-01T03:56:12;17.90;99.90
59098;DHT22;44883;52.760;6.610;2022-08-01T03:58:42;17.90;99.90
59098;DHT22;44883;52.760;6.610;2022-08-01T04:01:09;17.90;99.90
59098;DHT22;44883;52.760;6.610;2022-08-01T04:03:36;17.90;99.90
59098;DHT22;44883;52.760;6.610;2022-08-01T04:06:04;17.90;99.90
59098;DHT22;44883;52.760;6.610;2022-08-01T04:08:37;17.90;99.90
59098;DHT22;44883;52.760;6.610;2022-08-01T04:11:04;17.90;99.90
59098;DHT22;44883;52.760;6.610;2022-08-01T04:13:31;17.90;99.90
59098;DHT22;44883;52.760;6.610;2022-08-01T04:15:57;17.90;99.90
59098;DHT22;44883;52.760;6.610;2022-08-01T04:18:22;17.90;99.90
59098;DHT22;44883;52.760;6.610;2022-08-01T04:20:48;18.00;99.90
59098;DHT22;44883;52.760;6.610;2022-08-01T04:23:17;18.00;99.90
59098;DHT22;44883;52.760;6.610;2022-08-01T04:25:44;18.00;99.90
59098;DHT22;44883;52.760;6.610;2022-08-01T04:28:13;18.00;99.90
59098;DHT22;44883;52.760;6.610;2022-08-01T04:30:43;18.00;99.90
59098;DHT22;44883;52.760;6.610;2022-08-01T04:33:12;18.00;99.90
59098;DHT22;44883;52.760;6.610;2022-08-01T04:35:39;18.00;99.90
59098;DHT22;44883;52.760;6.610;2022-08-01T04:38:08;18.00;99.90
59098;DHT22;44883;52.760;6.610;2022-08-01T04:40:35;17.90;99.90
59098;DHT22;44883;52.760;6.610;2022-08-01T04:43:02;17.90;99.90
59098;DHT22;44883;52.760;6.610;2022-08-01T04:45:28;18.00;99.90
59098;DHT22;44883;52.760;6.610;2022-08-01T04:47:54;18.00;99.90
59098;DHT22;44883;52.760;6.610;2022-08-01T04:50:20;18.00;99.90
59098;DHT22;44883;52.760;6.610;2022-08-01T04:52:49;18.00;99.90
59098;DHT22;44883;52.760;6.610;2022-08-01T04:55:16;18.00;99.90
59098;DHT22;44883;52.760;6.610;2022-08-01T04:57:44;18.10;99.90
59098;DHT22;44883;52.760;6.610;2022-08-01T05:00:10;18.10;99.90
59098;DHT22;44883;52.760;6.610;2022-08-01T05:02:36;18.10;99.90
59098;DHT22;44883;52.760;6.610;2022-08-01T05:05:02;18.10;99.90
59098;DHT22;44883;52.760;6.610;2022-08-01T05:07:27;18.10;99.90
59098;DHT22;44883;52.760;6.610;2022-08-01T05:09:53;18.10;99.90
59098;DHT22;44883;52.760;6.610;2022-08-01T05:12:18;18.10;99.90
59098;DHT22;44883;52.760;6.610;2022-08-01T05:14:44;18.20;99.90
59098;DHT22;44883;52.760;6.610;2022-08-01T05:17:11;18.00;99.90
59098;DHT22;44883;52.760;6.610;2022-08-01T05:19:37;18.00;99.90
59098;DHT22;44883;52.760;6.610;2022-08-01T05:22:06;17.90;99.90
59098;DHT22;44883;52.760;6.610;2022-08-01T05:24:38;17.90;99.90
59098;DHT22;44883;52.760;6.610;2022-08-01T05:27:04;17.90;99.90
59098;DHT22;44883;52.760;6.610;2022-08-01T05:29:32;17.90;99.90
59098;DHT22;44883;52.760;6.610;2022-08-01T05:31:57;17.90;99.90
59098;DHT22;44883;52.760;6.610;2022-08-01T05:34:24;17.90;99.90
59098;DHT22;44883;52.760;6.610;2022-08-01T05:36:50;17.90;99.90
59098;DHT22;44883;52.760;6.610;2022-08-01T05:39:16;17.80;99.90
59098;DHT22;44883;52.760;6.610;2022-08-01T05:41:42;17.70;99.90
59098;DHT22;44883;52.760;6.610;2022-08-01T05:44:08;17.60;99.90
59098;DHT22;44883;52.760;6.610;2022-08-01T05:46:34;17.60;99.90
59098;DHT22;44883;52.760;6.610;2022-08-01T05:49:04;17.50;99.90
59098;DHT22;44883;52.760;6.610;2022-08-01T05:51:30;17.50;99.90
59098;DHT22;44883;52.760;6.610;2022-08-01T05:53:56;17.50;99.90
59098;DHT22;44883;52.760;6.610;2022-08-01T05:56:22;17.50;99.90
59098;DHT22;44883;52.760;6.610;2022-08-01T05:58:48;17.60;99.90
59098;DHT22;44883;52.760;6.610;2022-08-01T06:01:14;17.60;99.90
59098;DHT22;44883;52.760;6.610;2022-08-01T06:03:40;17.70;99.90
59098;DHT22;44883;52.760;6.610;2022-08-01T06:06:06;17.80;99.90
59098;DHT22;44883;52.760;6.610;2022-08-01T06:08:32;17.80;99.90
59098;DHT22;44883;52.760;6.610;2022-08-01T06:10:57;17.90;99.90
59098;DHT22;44883;52.760;6.610;2022-08-01T06:13:23;18.10;99.90
59098;DHT22;44883;52.760;6.610;2022-08-01T06:15:49;18.30;99.90
59098;DHT22;44883;52.760;6.610;2022-08-01T06:18:15;18.40;99.90
59098;DHT22;44883;52.760;6.610;2022-08-01T06:20:41;18.50;99.90
59098;DHT22;44883;52.760;6.610;2022-08-01T06:23:07;18.60;99.90
59098;DHT22;44883;52.760;6.610;2022-08-01T06:25:33;18.70;99.90
59098;DHT22;44883;52.760;6.610;2022-08-01T06:27:59;18.80;99.90
59098;DHT22;44883;52.760;6.610;2022-08-01T06:30:25;18.90;99.90
59098;DHT22;44883;52.760;6.610;2022-08-01T06:32:51;19.10;99.90
59098;DHT22;44883;52.760;6.610;2022-08-01T06:35:17;19.20;99.90
59098;DHT22;44883;52.760;6.610;2022-08-01T06:37:43;19.10;99.90
59098;DHT22;44883;52.760;6.610;2022-08-01T06:40:11;19.30;99.90
59098;DHT22;44883;52.760;6.610;2022-08-01T06:42:37;19.60;99.90
59098;DHT22;44883;52.760;6.610;2022-08-01T06:45:04;19.60;99.90
59098;DHT22;44883;52.760;6.610;2022-08-01T06:47:30;19.70;99.90
59098;DHT22;44883;52.760;6.610;2022-08-01T06:49:56;19.70;99.90
59098;DHT22;44883;52.760;6.610;2022-08-01T06:52:22;19.70;99.90
59098;DHT22;44883;52.760;6.610;2022-08-01T06:54:47;19.60;99.90
59098;DHT22;44883;52.760;6.610;2022-08-01T06:57:13;19.60;99.90
59098;DHT22;44883;52.760;6.610;2022-08-01T06:59:38;19.60;99.90
59098;DHT22;44883;52.760;6.610;2022-08-01T07:02:04;19.40;99.90
59098;DHT22;44883;52.760;6.610;2022-08-01T07:04:31;19.40;99.90
59098;DHT22;44883;52.760;6.610;2022-08-01T07:06:57;19.20;99.90
59098;DHT22;44883;52.760;6.610;2022-08-01T07:09:23;19.10;99.90
59098;DHT22;44883;52.760;6.610;2022-08-01T07:11:48;19.00;99.90
59098;DHT22;44883;52.760;6.610;2022-08-01T07:14:15;19.10;99.90
59098;DHT22;44883;52.760;6.610;2022-08-01T07:16:41;19.10;99.90
59098;DHT22;44883;52.760;6.610;2022-08-01T07:19:07;19.00;99.90
59098;DHT22;44883;52.760;6.610;2022-08-01T07:21:33;19.10;99.90
59098;DHT22;44883;52.760;6.610;2022-08-01T07:23:58;19.20;99.90
59098;DHT22;44883;52.760;6.610;2022-08-01T07:26:24;19.20;99.90
59098;DHT22;44883;52.760;6.610;2022-08-01T07:28:50;19.30;99.90
59098;DHT22;44883;52.760;6.610;2022-08-01T07:31:15;19.40;99.90
59098;DHT22;44883;52.760;6.610;2022-08-01T07:33:41;19.50;99.90
59098;DHT22;44883;52.760;6.610;2022-08-01T07:36:07;19.60;99.90
59098;DHT22;44883;52.760;6.610;2022-08-01T07:38:32;19.60;99.90
59098;DHT22;44883;52.760;6.610;2022-08-01T07:40:58;19.40;99.90
59098;DHT22;44883;52.760;6.610;2022-08-01T07:43:23;19.50;99.90
59098;DHT22;44883;52.760;6.610;2022-08-01T07:45:49;19.60;99.90
59098;DHT22;44883;52.760;6.610;2022-08-01T07:48:14;19.70;99.90
59098;DHT22;44883;52.760;6.610;2022-08-01T07:50:40;19.70;99.90
59098;DHT22;44883;52.760;6.610;2022-08-01T07:53:05;19.50;99.90
59098;DHT22;44883;52.760;6.610;2022-08-01T07:55:31;19.40;99.90
59098;DHT22;44883;52.760;6.610;2022-08-01T07:57:57;19.40;99.90
59098;DHT22;44883;52.760;6.610;2022-08-01T08:00:23;19.50;99.90
59098;DHT22;44883;52.760;6.610;2022-08-01T08:02:49;19.70;99.90
59098;DHT22;44883;52.760;6.610;2022-08-01T08:05:14;19.80;99.90
59098;DHT22;44883;52.760;6.610;2022-08-01T08:07:40;19.90;99.90
59098;DHT22;44883;52.760;6.610;2022-08-01T08:10:06;20.00;99.90
59098;DHT22;44883;52.760;6.610;2022-08-01T08:12:32;19.90;99.90
59098;DHT22;44883;52.760;6.610;2022-08-01T08:14:57;19.70;99.90
59098;DHT22;44883;52.760;6.610;2022-08-01T08:17:26;19.70;99.90
59098;DHT22;44883;52.760;6.610;2022-08-01T08:19:52;19.70;99.90
59098;DHT22;44883;52.760;6.610;2022-08-01T08:22:18;19.90;99.90
59098;DHT22;44883;52.760;6.610;2022-08-01T08:24:44;20.00;99.90
59098;DHT22;44883;52.760;6.610;2022-08-01T08:27:09;20.20;99.90
59098;DHT22;44883;52.760;6.610;2022-08-01T08:29:35;20.30;99.90
59098;DHT22;44883;52.760;6.610;2022-08-01T08:32:01;20.60;99.90
59098;DHT22;44883;52.760;6.610;2022-08-01T08:34:27;20.70;99.90
59098;DHT22;44883;52.760;6.610;2022-08-01T08:36:54;20.90;99.90
59098;DHT22;44883;52.760;6.610;2022-08-01T08:39:20;21.50;99.90
59098;DHT22;44883;52.760;6.610;2022-08-01T08:41:46;21.90;99.90
59098;DHT22;44883;52.760;6.610;2022-08-01T08:44:12;22.10;98.00
59098;DHT22;44883;52.760;6.610;2022-08-01T08:46:49;22.50;97.80
59098;DHT22;44883;52.760;6.610;2022-08-01T08:49:18;23.00;97.10
59098;DHT22;44883;52.760;6.610;2022-08-01T08:51:48;23.10;95.80
59098;DHT22;44883;52.760;6.610;2022-08-01T08:54:14;23.00;94.30
59098;DHT22;44883;52.760;6.610;2022-08-01T08:56:41;22.50;94.50
59098;DHT22;44883;52.760;6.610;2022-08-01T08:59:07;22.40;92.40
59098;DHT22;44883;52.760;6.610;2022-08-01T09:01:33;21.90;92.40
59098;DHT22;44883;52.760;6.610;2022-08-01T09:04:01;22.10;94.50
59098;DHT22;44883;52.760;6.610;2022-08-01T09:06:27;22.80;95.20
59098;DHT22;44883;52.760;6.610;2022-08-01T09:08:54;23.30;93.10
59098;DHT22;44883;52.760;6.610;2022-08-01T09:11:20;23.30;92.40
59098;DHT22;44883;52.760;6.610;2022-08-01T09:14:14;23.60;91.00
59098;DHT22;44883;52.760;6.610;2022-08-01T09:16:43;23.40;84.00
59098;DHT22;44883;52.760;6.610;2022-08-01T09:19:18;23.80;90.40
59098;DHT22;44883;52.760;6.610;2022-08-01T09:22:01;24.40;86.10
59098;DHT22;44883;52.760;6.610;2022-08-01T09:24:28;24.20;70.70
59098;DHT22;44883;52.760;6.610;2022-08-01T09:26:55;24.10;88.40
59098;DHT22;44883;52.760;6.610;2022-08-01T09:29:26;23.90;80.40
59098;DHT22;44883;52.760;6.610;2022-08-01T09:31:52;23.90;80.10
59098;DHT22;44883;52.760;6.610;2022-08-01T09:34:28;23.80;82.10
59098;DHT22;44883;52.760;6.610;2022-08-01T09:36:57;23.50;75.70
59098;DHT22;44883;52.760;6.610;2022-08-01T09:39:28;23.30;84.90
59098;DHT22;44883;52.760;6.610;2022-08-01T09:41:56;24.10;88.40
59098;DHT22;44883;52.760;6.610;2022-08-01T09:44:42;24.50;68.30
59098;DHT22;44883;52.760;6.610;2022-08-01T09:47:08;25.00;66.10
59098;DHT22;44883;52.760;6.610;2022-08-01T09:49:38;25.00;70.10
59098;DHT22;44883;52.760;6.610;2022-08-01T09:52:15;25.70;73.70
59098;DHT22;44883;52.760;6.610;2022-08-01T09:54:43;25.40;60.70
59098;DHT22;44883;52.760;6.610;2022-08-01T09:57:18;25.50;62.80
59098;DHT22;44883;52.760;6.610;2022-08-01T09:59:47;25.20;60.60
59098;DHT22;44883;52.760;6.610;2022-08-01T10:02:25;25.30;67.90
59098;DHT22;44883;52.760;6.610;2022-08-01T10:04:52;24.60;62.10
59098;DHT22;44883;52.760;6.610;2022-08-01T10:07:18;24.60;69.30
59098;DHT22;44883;52.760;6.610;2022-08-01T10:09:46;24.50;59.30
59098;DHT22;44883;52.760;6.610;2022-08-01T10:12:22;24.50;65.70
59098;DHT22;44883;52.760;6.610;2022-08-01T10:14:50;24.70;63.90
59098;DHT22;44883;52.760;6.610;2022-08-01T10:17:19;24.50;59.50
59098;DHT22;44883;52.760;6.610;2022-08-01T10:19:46;24.10;62.30
59098;DHT22;44883;52.760;6.610;2022-08-01T10:22:13;24.50;71.60
59098;DHT22;44883;52.760;6.610;2022-08-01T10:24:43;24.90;60.10
59098;DHT22;44883;52.760;6.610;2022-08-01T10:27:10;25.20;59.80
59098;DHT22;44883;52.760;6.610;2022-08-01T10:32:05;25.20;60.20
59098;DHT22;44883;52.760;6.610;2022-08-01T10:34:32;25.30;57.60
59098;DHT22;44883;52.760;6.610;2022-08-01T10:36:59;25.60;62.80
59098;DHT22;44883;52.760;6.610;2022-08-01T10:39:25;25.90;61.70
59098;DHT22;44883;52.760;6.610;2022-08-01T10:41:54;26.10;60.00
59098;DHT22;44883;52.760;6.610;2022-08-01T10:44:21;25.80;55.60
59098;DHT22;44883;52.760;6.610;2022-08-01T10:46:48;25.60;58.50
59098;DHT22;44883;52.760;6.610;2022-08-01T10:49:17;25.60;59.00
59098;DHT22;44883;52.760;6.610;2022-08-01T10:51:45;24.70;54.30
59098;DHT22;44883;52.760;6.610;2022-08-01T10:54:12;24.50;56.10
59098;DHT22;44883;52.760;6.610;2022-08-01T10:56:40;24.20;61.90
59098;DHT22;44883;52.760;6.610;2022-08-01T10:59:07;24.40;64.90
59098;DHT22;44883;52.760;6.610;2022-08-01T11:01:33;24.60;66.00
59098;DHT22;44883;52.760;6.610;2022-08-01T11:04:03;25.00;63.90
59098;DHT22;44883;52.760;6.610;2022-08-01T11:09:00;25.30;59.30
59098;DHT22;44883;52.760;6.610;2022-08-01T11:11:26;25.20;56.90
59098;DHT22;44883;52.760;6.610;2022-08-01T11:14:01;25.30;60.80
59098;DHT22;44883;52.760;6.610;2022-08-01T11:16:32;25.40;59.40
59098;DHT22;44883;52.760;6.610;2022-08-01T11:18:58;25.70;59.00
59098;DHT22;44883;52.760;6.610;2022-08-01T11:27:17;25.10;53.80
59098;DHT22;44883;52.760;6.610;2022-08-01T11:29:43;25.20;58.90
59098;DHT22;44883;52.760;6.610;2022-08-01T11:32:25;25.20;60.90
59098;DHT22;44883;52.760;6.610;2022-08-01T11:34:55;25.40;63.50
59098;DHT22;44883;52.760;6.610;2022-08-01T11:37:28;25.60;58.70
59098;DHT22;44883;52.760;6.610;2022-08-01T11:40:29;25.90;58.20
59098;DHT22;44883;52.760;6.610;2022-08-01T11:45:51;25.90;55.60
59098;DHT22;44883;52.760;6.610;2022-08-01T11:48:22;25.90;54.80
59098;DHT22;44883;52.760;6.610;2022-08-01T11:50:50;25.90;52.50
59098;DHT22;44883;52.760;6.610;2022-08-01T11:53:17;25.80;55.00
59098;DHT22;44883;52.760;6.610;2022-08-01T11:55:53;25.60;52.40
59098;DHT22;44883;52.760;6.610;2022-08-01T11:58:26;25.50;53.70
59098;DHT22;44883;52.760;6.610;2022-08-01T12:00:56;25.10;52.50
59098;DHT22;44883;52.760;6.610;2022-08-01T12:03:27;24.60;53.50
59098;DHT22;44883;52.760;6.610;2022-08-01T12:05:55;24.60;53.00
59098;DHT22;44883;52.760;6.610;2022-08-01T12:08:25;24.70;55.80
59098;DHT22;44883;52.760;6.610;2022-08-01T12:10:51;25.00;58.30
59098;DHT22;44883;52.760;6.610;2022-08-01T12:13:17;25.00;54.80
59098;DHT22;44883;52.760;6.610;2022-08-01T12:15:43;25.00;55.70
59098;DHT22;44883;52.760;6.610;2022-08-01T12:18:10;25.10;57.20
59098;DHT22;44883;52.760;6.610;2022-08-01T12:20:38;24.80;53.20
59098;DHT22;44883;52.760;6.610;2022-08-01T12:23:07;24.60;57.40
59098;DHT22;44883;52.760;6.610;2022-08-01T12:25:35;24.80;58.20
59098;DHT22;44883;52.760;6.610;2022-08-01T12:28:02;25.00;58.40
59098;DHT22;44883;52.760;6.610;2022-08-01T12:30:30;24.70;54.30
59098;DHT22;44883;52.760;6.610;2022-08-01T12:33:05;24.80;55.90
59098;DHT22;44883;52.760;6.610;2022-08-01T12:35:31;24.40;53.20
59098;DHT22;44883;52.760;6.610;2022-08-01T12:38:04;24.30;54.80
59098;DHT22;44883;52.760;6.610;2022-08-01T12:40:41;24.50;57.40
59098;DHT22;44883;52.760;6.610;2022-08-01T12:43:08;24.70;58.20
59098;DHT22;44883;52.760;6.610;2022-08-01T12:45:39;24.80;56.70
59098;DHT22;44883;52.760;6.610;2022-08-01T12:48:14;24.80;55.80
59098;DHT22;44883;52.760;6.610;2022-08-01T12:50:42;24.90;55.40
59098;DHT22;44883;52.760;6.610;2022-08-01T12:53:09;24.60;52.30
59098;DHT22;44883;52.760;6.610;2022-08-01T12:55:47;24.80;55.60
59098;DHT22;44883;52.760;6.610;2022-08-01T12:58:15;25.00;54.70
59098;DHT22;44883;52.760;6.610;2022-08-01T13:00:42;25.00;56.80
59098;DHT22;44883;52.760;6.610;2022-08-01T13:05:42;24.60;53.00
59098;DHT22;44883;52.760;6.610;2022-08-01T13:08:13;24.50;56.40
59098;DHT22;44883;52.760;6.610;2022-08-01T13:10:40;24.50;57.80
59098;DHT22;44883;52.760;6.610;2022-08-01T13:13:07;24.50;54.30
59098;DHT22;44883;52.760;6.610;2022-08-01T13:15:34;24.40;53.90
59098;DHT22;44883;52.760;6.610;2022-08-01T13:20:49;24.40;50.50
59098;DHT22;44883;52.760;6.610;2022-08-01T13:23:16;24.40;53.70
59098;DHT22;44883;52.760;6.610;2022-08-01T13:25:54;24.60;55.90
59098;DHT22;44883;52.760;6.610;2022-08-01T13:28:26;24.60;59.50
59098;DHT22;44883;52.760;6.610;2022-08-01T13:31:01;24.70;62.40
59098;DHT22;44883;52.760;6.610;2022-08-01T13:33:40;25.20;58.80
59098;DHT22;44883;52.760;6.610;2022-08-01T13:36:06;25.50;53.40
59098;DHT22;44883;52.760;6.610;2022-08-01T13:38:32;25.50;54.60
59098;DHT22;44883;52.760;6.610;2022-08-01T13:41:17;25.60;55.00
59098;DHT22;44883;52.760;6.610;2022-08-01T13:43:42;25.70;56.10
59098;DHT22;44883;52.760;6.610;2022-08-01T13:46:08;25.40;50.60
59098;DHT22;44883;52.760;6.610;2022-08-01T13:48:33;25.10;50.50
59098;DHT22;44883;52.760;6.610;2022-08-01T13:50:59;24.50;51.30
59098;DHT22;44883;52.760;6.610;2022-08-01T13:53:26;24.40;54.80
59098;DHT22;44883;52.760;6.610;2022-08-01T13:55:51;24.30;53.00
59098;DHT22;44883;52.760;6.610;2022-08-01T13:58:17;24.50;55.40
59098;DHT22;44883;52.760;6.610;2022-08-01T14:00:43;24.80;55.00
59098;DHT22;44883;52.760;6.610;2022-08-01T14:03:08;24.70;51.20
59098;DHT22;44883;52.760;6.610;2022-08-01T14:05:36;24.60;51.60
59098;DHT22;44883;52.760;6.610;2022-08-01T14:08:02;24.60;53.40
59098;DHT22;44883;52.760;6.610;2022-08-01T14:10:28;24.80;54.50
59098;DHT22;44883;52.760;6.610;2022-08-01T14:12:55;25.00;55.10
59098;DHT22;44883;52.760;6.610;2022-08-01T14:15:21;24.80;51.00
59098;DHT22;44883;52.760;6.610;2022-08-01T14:17:47;24.80;53.20
59098;DHT22;44883;52.760;6.610;2022-08-01T14:20:13;24.70;50.60
59098;DHT22;44883;52.760;6.610;2022-08-01T14:22:38;24.60;47.80
59098;DHT22;44883;52.760;6.610;2022-08-01T14:25:06;24.40;48.60
59098;DHT22;44883;52.760;6.610;2022-08-01T14:27:31;24.60;52.30
59098;DHT22;44883;52.760;6.610;2022-08-01T14:30:01;24.80;50.90
59098;DHT22;44883;52.760;6.610;2022-08-01T14:32:27;25.00;51.10
59098;DHT22;44883;52.760;6.610;2022-08-01T14:34:53;24.90;50.70
59098;DHT22;44883;52.760;6.610;2022-08-01T14:37:18;25.00;51.60
59098;DHT22;44883;52.760;6.610;2022-08-01T14:39:44;25.30;51.40
59098;DHT22;44883;52.760;6.610;2022-08-01T14:42:09;25.40;50.80
59098;DHT22;44883;52.760;6.610;2022-08-01T14:44:35;25.60;51.20
59098;DHT22;44883;52.760;6.610;2022-08-01T14:47:00;25.60;50.90
59098;DHT22;44883;52.760;6.610;2022-08-01T14:49:26;25.70;51.10
59098;DHT22;44883;52.760;6.610;2022-08-01T14:51:52;25.50;48.40
59098;DHT22;44883;52.760;6.610;2022-08-01T14:54:17;25.60;49.10
59098;DHT22;44883;52.760;6.610;2022-08-01T14:56:43;25.60;46.90
59098;DHT22;44883;52.760;6.610;2022-08-01T14:59:08;25.70;48.90
59098;DHT22;44883;52.760;6.610;2022-08-01T15:01:34;25.80;48.80
59098;DHT22;44883;52.760;6.610;2022-08-01T15:03:59;25.80;49.00
59098;DHT22;44883;52.760;6.610;2022-08-01T15:06:25;25.40;48.50
59098;DHT22;44883;52.760;6.610;2022-08-01T15:08:50;25.20;49.10
59098;DHT22;44883;52.760;6.610;2022-08-01T15:11:17;25.00;49.50
59098;DHT22;44883;52.760;6.610;2022-08-01T15:13:42;24.50;48.70
59098;DHT22;44883;52.760;6.610;2022-08-01T15:16:08;24.40;50.70
59098;DHT22;44883;52.760;6.610;2022-08-01T15:18:33;24.40;51.30
59098;DHT22;44883;52.760;6.610;2022-08-01T15:20:59;24.30;49.70
59098;DHT22;44883;52.760;6.610;2022-08-01T15:23:24;24.30;50.90
59098;DHT22;44883;52.760;6.610;2022-08-01T15:25:50;24.20;50.90
59098;DHT22;44883;52.760;6.610;2022-08-01T15:28:15;24.10;51.40
59098;DHT22;44883;52.760;6.610;2022-08-01T15:30:41;24.10;50.30
59098;DHT22;44883;52.760;6.610;2022-08-01T15:33:07;23.90;49.80
59098;DHT22;44883;52.760;6.610;2022-08-01T15:35:33;23.60;52.40
59098;DHT22;44883;52.760;6.610;2022-08-01T15:37:59;23.60;53.20
59098;DHT22;44883;52.760;6.610;2022-08-01T15:40:24;23.80;53.20
59098;DHT22;44883;52.760;6.610;2022-08-01T15:42:50;23.90;52.30
59098;DHT22;44883;52.760;6.610;2022-08-01T15:45:17;23.90;50.60
59098;DHT22;44883;52.760;6.610;2022-08-01T15:47:44;23.60;50.50
59098;DHT22;44883;52.760;6.610;2022-08-01T15:50:10;23.50;52.10
59098;DHT22;44883;52.760;6.610;2022-08-01T15:52:35;23.40;52.20
59098;DHT22;44883;52.760;6.610;2022-08-01T15:55:01;23.50;54.50
59098;DHT22;44883;52.760;6.610;2022-08-01T15:57:27;23.50;52.50
59098;DHT22;44883;52.760;6.610;2022-08-01T15:59:53;23.30;51.00